sensor_id;sensor_type;location;lat;lon;timestamp;pressure;altitude;pressure_sealevel;temperature;humidity
76590;BME280;65471;55.908;37.880;2024-01-27T00:02:09;99667.50;;;-5.87;90.31
76590;BME280;65471;55.908;37.880;2024-01-27T00:04:36;99673.34;;;-5.84;90.10
76590;BME280;65471;55.908;37.880;2024-01-27T00:07:04;99671.94;;;-5.88;90.36
76590;BME280;65471;55.908;37.880;2024-01-27T00:09:31;99674.91;;;-5.81;90.09
76590;BME280;65471;55.908;37.880;2024-01-27T00:11:58;99680.97;;;-5.81;90.34
76590;BME280;65471;55.908;37.880;2024-01-27T00:14:26;99680.72;;;-5.78;89.99
76590;BME280;65471;55.908;37.880;2024-01-27T00:16:53;99675.84;;;-5.82;89.83
76590;BME280;65471;55.908;37.880;2024-01-27T00:19:20;99673.22;;;-5.82;89.99
76590;BME280;65471;55.908;37.880;2024-01-27T00:21:47;99674.16;;;-5.83;89.77
76590;BME280;65471;55.908;37.880;2024-01-27T00:24:14;99662.56;;;-5.81;89.68
76590;BME280;65471;55.908;37.880;2024-01-27T00:26:42;99671.28;;;-5.80;89.95
76590;BME280;65471;55.908;37.880;2024-01-27T00:29:10;99648.84;;;-5.96;90.09
76590;BME280;65471;55.908;37.880;2024-01-27T00:31:37;99670.06;;;-5.76;89.83
76590;BME280;65471;55.908;37.880;2024-01-27T00:34:04;99674.50;;;-5.77;89.56
76590;BME280;65471;55.908;37.880;2024-01-27T00:36:32;99666.34;;;-5.74;90.08
76590;BME280;65471;55.908;37.880;2024-01-27T00:38:59;99669.78;;;-5.73;89.76
76590;BME280;65471;55.908;37.880;2024-01-27T00:41:26;99672.13;;;-5.80;90.01
76590;BME280;65471;55.908;37.880;2024-01-27T00:43:53;99669.72;;;-5.83;90.20
76590;BME280;65471;55.908;37.880;2024-01-27T00:46:20;99678.47;;;-5.82;90.05
76590;BME280;65471;55.908;37.880;2024-01-27T00:48:47;99682.34;;;-5.86;89.72
76590;BME280;65471;55.908;37.880;2024-01-27T00:51:15;99678.03;;;-5.87;90.00
76590;BME280;65471;55.908;37.880;2024-01-27T00:53:42;99678.03;;;-5.87;90.29
76590;BME280;65471;55.908;37.880;2024-01-27T00:56:09;99679.97;;;-5.90;89.96
76590;BME280;65471;55.908;37.880;2024-01-27T00:58:36;99678.28;;;-5.91;89.85
76590;BME280;65471;55.908;37.880;2024-01-27T01:01:03;99666.78;;;-5.90;90.21
76590;BME280;65471;55.908;37.880;2024-01-27T01:03:30;99670.84;;;-5.85;90.00
76590;BME280;65471;55.908;37.880;2024-01-27T01:05:57;99677.75;;;-5.84;89.90
76590;BME280;65471;55.908;37.880;2024-01-27T01:08:24;99678.47;;;-5.82;89.81
76590;BME280;65471;55.908;37.880;2024-01-27T01:10:51;99678.63;;;-5.84;89.90
76590;BME280;65471;55.908;37.880;2024-01-27T01:13:18;99675.72;;;-5.81;89.67
76590;BME280;65471;55.908;37.880;2024-01-27T01:15:45;99672.13;;;-5.80;89.59
76590;BME280;65471;55.908;37.880;2024-01-27T01:18:12;99676.28;;;-5.77;89.40
76590;BME280;65471;55.908;37.880;2024-01-27T01:20:40;99675.31;;;-5.76;89.41
76590;BME280;65471;55.908;37.880;2024-01-27T01:23:07;99677.81;;;-5.75;89.95
76590;BME280;65471;55.908;37.880;2024-01-27T01:25:34;99684.91;;;-5.75;89.43
76590;BME280;65471;55.908;37.880;2024-01-27T01:28:02;99685.16;;;-5.78;89.81
76590;BME280;65471;55.908;37.880;2024-01-27T01:30:30;99685.28;;;-5.80;89.39
76590;BME280;65471;55.908;37.880;2024-01-27T01:32:57;99677.63;;;-5.83;89.83
76590;BME280;65471;55.908;37.880;2024-01-27T01:35:24;99684.31;;;-5.79;89.30
76590;BME280;65471;55.908;37.880;2024-01-27T01:37:51;99690.44;;;-5.78;89.24
76590;BME280;65471;55.908;37.880;2024-01-27T01:40:18;99679.00;;;-5.88;89.26
76590;BME280;65471;55.908;37.880;2024-01-27T01:42:50;99681.25;;;-5.84;89.69
76590;BME280;65471;55.908;37.880;2024-01-27T01:45:18;99684.69;;;-5.83;89.81
76590;BME280;65471;55.908;37.880;2024-01-27T01:47:45;99687.47;;;-5.85;89.42
76590;BME280;65471;55.908;37.880;2024-01-27T01:50:13;99676.81;;;-5.83;89.54
76590;BME280;65471;55.908;37.880;2024-01-27T01:52:40;99679.03;;;-5.79;89.33
76590;BME280;65471;55.908;37.880;2024-01-27T01:55:07;99684.19;;;-5.77;89.29
76590;BME280;65471;55.908;37.880;2024-01-27T01:57:34;99689.72;;;-5.80;89.00
76590;BME280;65471;55.908;37.880;2024-01-27T02:00:02;99688.56;;;-5.87;88.80
76590;BME280;65471;55.908;37.880;2024-01-27T02:02:30;99687.00;;;-5.90;89.64
76590;BME280;65471;55.908;37.880;2024-01-27T02:04:57;99693.38;;;-5.93;89.23
76590;BME280;65471;55.908;37.880;2024-01-27T02:07:24;99706.94;;;-5.97;89.79
76590;BME280;65471;55.908;37.880;2024-01-27T02:09:51;99704.56;;;-6.00;89.49
76590;BME280;65471;55.908;37.880;2024-01-27T02:12:18;99710.25;;;-5.95;89.80
76590;BME280;65471;55.908;37.880;2024-01-27T02:14:45;99714.97;;;-5.99;89.55
76590;BME280;65471;55.908;37.880;2024-01-27T02:17:13;99708.44;;;-5.95;89.93
76590;BME280;65471;55.908;37.880;2024-01-27T02:19:40;99708.91;;;-5.90;90.06
76590;BME280;65471;55.908;37.880;2024-01-27T02:22:07;99715.28;;;-5.92;89.73
76590;BME280;65471;55.908;37.880;2024-01-27T02:24:34;99719.44;;;-5.90;89.70
76590;BME280;65471;55.908;37.880;2024-01-27T02:27:01;99707.25;;;-5.91;89.55
76590;BME280;65471;55.908;37.880;2024-01-27T02:29:28;99723.16;;;-5.92;89.51
76590;BME280;65471;55.908;37.880;2024-01-27T02:31:55;99722.34;;;-5.93;89.63
76590;BME280;65471;55.908;37.880;2024-01-27T02:34:22;99734.38;;;-5.90;89.44
76590;BME280;65471;55.908;37.880;2024-01-27T02:36:50;99729.13;;;-5.90;89.47
76590;BME280;65471;55.908;37.880;2024-01-27T02:39:17;99728.16;;;-5.89;89.56
76590;BME280;65471;55.908;37.880;2024-01-27T02:41:44;99734.78;;;-5.95;89.28
76590;BME280;65471;55.908;37.880;2024-01-27T02:44:11;99740.63;;;-5.91;89.89
76590;BME280;65471;55.908;37.880;2024-01-27T02:46:38;99725.53;;;-5.89;89.40
76590;BME280;65471;55.908;37.880;2024-01-27T02:49:05;99730.81;;;-5.89;89.41
76590;BME280;65471;55.908;37.880;2024-01-27T02:51:32;99735.00;;;-5.86;89.20
76590;BME280;65471;55.908;37.880;2024-01-27T02:53:59;99735.00;;;-5.86;88.97
76590;BME280;65471;55.908;37.880;2024-01-27T02:56:26;99742.19;;;-5.88;89.50
76590;BME280;65471;55.908;37.880;2024-01-27T02:58:53;99738.56;;;-5.87;89.03
76590;BME280;65471;55.908;37.880;2024-01-27T03:01:20;99741.34;;;-5.89;89.38
76590;BME280;65471;55.908;37.880;2024-01-27T03:03:47;99740.50;;;-5.90;88.84
76590;BME280;65471;55.908;37.880;2024-01-27T03:06:14;99735.13;;;-5.88;89.05
76590;BME280;65471;55.908;37.880;2024-01-27T03:08:41;99734.78;;;-5.95;88.86
76590;BME280;65471;55.908;37.880;2024-01-27T03:11:08;99738.38;;;-5.96;88.89
76590;BME280;65471;55.908;37.880;2024-01-27T03:13:35;99739.91;;;-5.93;89.16
76590;BME280;65471;55.908;37.880;2024-01-27T03:16:02;99734.25;;;-5.98;89.27
76590;BME280;65471;55.908;37.880;2024-01-27T03:18:30;99736.91;;;-6.10;89.02
76590;BME280;65471;55.908;37.880;2024-01-27T03:20:57;99738.25;;;-6.15;89.02
76590;BME280;65471;55.908;37.880;2024-01-27T03:23:24;99737.88;;;-6.11;89.52
76590;BME280;65471;55.908;37.880;2024-01-27T03:25:51;99737.06;;;-6.11;90.00
76590;BME280;65471;55.908;37.880;2024-01-27T03:28:20;99745.63;;;-6.09;89.52
76590;BME280;65471;55.908;37.880;2024-01-27T03:30:47;99745.63;;;-6.09;89.67
76590;BME280;65471;55.908;37.880;2024-01-27T03:33:14;99749.44;;;-6.02;89.88
76590;BME280;65471;55.908;37.880;2024-01-27T03:35:41;99753.50;;;-5.98;89.29
76590;BME280;65471;55.908;37.880;2024-01-27T03:38:09;99762.34;;;-5.99;89.87
76590;BME280;65471;55.908;37.880;2024-01-27T03:40:35;99761.66;;;-6.01;88.95
76590;BME280;65471;55.908;37.880;2024-01-27T03:43:03;99758.69;;;-6.08;89.61
76590;BME280;65471;55.908;37.880;2024-01-27T03:45:30;99759.28;;;-6.04;88.94
76590;BME280;65471;55.908;37.880;2024-01-27T03:47:57;99762.38;;;-6.10;89.65
76590;BME280;65471;55.908;37.880;2024-01-27T03:50:24;99767.53;;;-6.09;89.14
76590;BME280;65471;55.908;37.880;2024-01-27T03:52:51;99769.81;;;-6.04;89.32
76590;BME280;65471;55.908;37.880;2024-01-27T03:55:18;99761.78;;;-6.02;89.17
76590;BME280;65471;55.908;37.880;2024-01-27T03:57:45;99762.25;;;-6.09;89.02
76590;BME280;65471;55.908;37.880;2024-01-27T04:00:13;99759.31;;;-6.15;89.59
76590;BME280;65471;55.908;37.880;2024-01-27T04:02:40;99763.84;;;-6.17;89.41
76590;BME280;65471;55.908;37.880;2024-01-27T04:05:07;99764.81;;;-6.18;89.71
76590;BME280;65471;55.908;37.880;2024-01-27T04:07:34;99776.06;;;-6.16;90.03
76590;BME280;65471;55.908;37.880;2024-01-27T04:10:02;99779.16;;;-6.11;89.62
76590;BME280;65471;55.908;37.880;2024-01-27T04:12:31;99786.31;;;-6.13;88.96
76590;BME280;65471;55.908;37.880;2024-01-27T04:14:58;99775.94;;;-6.26;89.14
76590;BME280;65471;55.908;37.880;2024-01-27T04:17:29;99794.97;;;-6.22;88.84
76590;BME280;65471;55.908;37.880;2024-01-27T04:19:56;99788.72;;;-6.21;89.56
76590;BME280;65471;55.908;37.880;2024-01-27T04:22:23;99800.56;;;-6.16;89.25
76590;BME280;65471;55.908;37.880;2024-01-27T04:24:50;99807.25;;;-6.12;88.80
76590;BME280;65471;55.908;37.880;2024-01-27T04:27:17;99806.31;;;-6.11;89.28
76590;BME280;65471;55.908;37.880;2024-01-27T04:29:44;99811.81;;;-6.14;88.95
76590;BME280;65471;55.908;37.880;2024-01-27T04:32:12;99801.06;;;-6.22;88.94
76590;BME280;65471;55.908;37.880;2024-01-27T04:34:39;99818.16;;;-6.16;88.67
76590;BME280;65471;55.908;37.880;2024-01-27T04:37:07;99815.66;;;-6.18;89.00
76590;BME280;65471;55.908;37.880;2024-01-27T04:39:34;99809.09;;;-6.23;88.69
76590;BME280;65471;55.908;37.880;2024-01-27T04:42:01;99814.97;;;-6.31;88.72
76590;BME280;65471;55.908;37.880;2024-01-27T04:44:28;99820.69;;;-6.37;89.08
76590;BME280;65471;55.908;37.880;2024-01-27T04:46:55;99815.91;;;-6.32;89.08
76590;BME280;65471;55.908;37.880;2024-01-27T04:49:22;99815.41;;;-6.26;89.66
76590;BME280;65471;55.908;37.880;2024-01-27T04:51:49;99821.50;;;-6.26;88.87
76590;BME280;65471;55.908;37.880;2024-01-27T04:54:16;99813.19;;;-6.42;89.12
76590;BME280;65471;55.908;37.880;2024-01-27T04:56:43;99824.13;;;-6.26;88.98
76590;BME280;65471;55.908;37.880;2024-01-27T04:59:10;99828.56;;;-6.26;88.70
76590;BME280;65471;55.908;37.880;2024-01-27T05:01:37;99828.69;;;-6.28;88.49
76590;BME280;65471;55.908;37.880;2024-01-27T05:04:04;99834.91;;;-6.29;89.24
76590;BME280;65471;55.908;37.880;2024-01-27T05:06:31;99831.84;;;-6.34;89.16
76590;BME280;65471;55.908;37.880;2024-01-27T05:08:58;99827.88;;;-6.28;89.25
76590;BME280;65471;55.908;37.880;2024-01-27T05:11:29;99815.69;;;-6.40;89.11
76590;BME280;65471;55.908;37.880;2024-01-27T05:14:00;99821.66;;;-6.38;88.68
76590;BME280;65471;55.908;37.880;2024-01-27T05:16:28;99822.97;;;-6.33;89.01
76590;BME280;65471;55.908;37.880;2024-01-27T05:18:55;99835.78;;;-6.39;88.85
76590;BME280;65471;55.908;37.880;2024-01-27T05:21:23;99836.13;;;-6.44;89.34
76590;BME280;65471;55.908;37.880;2024-01-27T05:23:50;99837.81;;;-6.43;89.09
76590;BME280;65471;55.908;37.880;2024-01-27T05:26:17;99854.78;;;-6.36;89.51
76590;BME280;65471;55.908;37.880;2024-01-27T05:28:44;99847.00;;;-6.37;89.50
76590;BME280;65471;55.908;37.880;2024-01-27T05:31:11;99854.78;;;-6.36;89.42
76590;BME280;65471;55.908;37.880;2024-01-27T05:33:38;99848.31;;;-6.32;89.23
76590;BME280;65471;55.908;37.880;2024-01-27T05:36:06;99856.81;;;-6.28;89.08
76590;BME280;65471;55.908;37.880;2024-01-27T05:38:33;99860.66;;;-6.32;89.31
76590;BME280;65471;55.908;37.880;2024-01-27T05:41:01;99868.06;;;-6.37;89.00
76590;BME280;65471;55.908;37.880;2024-01-27T05:43:28;99863.41;;;-6.34;89.33
76590;BME280;65471;55.908;37.880;2024-01-27T05:45:55;99865.66;;;-6.29;88.93
76590;BME280;65471;55.908;37.880;2024-01-27T05:48:22;99869.00;;;-6.27;88.85
76590;BME280;65471;55.908;37.880;2024-01-27T05:50:59;99869.59;;;-6.23;89.19
76590;BME280;65471;55.908;37.880;2024-01-27T05:53:27;99847.88;;;-6.37;88.86
76590;BME280;65471;55.908;37.880;2024-01-27T05:55:55;99880.72;;;-6.20;88.39
76590;BME280;65471;55.908;37.880;2024-01-27T05:58:22;99880.97;;;-6.23;88.52
76590;BME280;65471;55.908;37.880;2024-01-27T06:00:49;99880.84;;;-6.21;88.86
76590;BME280;65471;55.908;37.880;2024-01-27T06:03:16;99886.22;;;-6.23;88.48
76590;BME280;65471;55.908;37.880;2024-01-27T06:05:44;99889.84;;;-6.24;88.53
76590;BME280;65471;55.908;37.880;2024-01-27T06:08:11;99882.75;;;-6.23;89.10
76590;BME280;65471;55.908;37.880;2024-01-27T06:10:38;99894.22;;;-6.25;88.63
76590;BME280;65471;55.908;37.880;2024-01-27T06:13:05;99897.34;;;-6.19;88.75
76590;BME280;65471;55.908;37.880;2024-01-27T06:15:32;99905.94;;;-6.17;89.05
76590;BME280;65471;55.908;37.880;2024-01-27T06:18:00;99903.19;;;-6.16;88.62
76590;BME280;65471;55.908;37.880;2024-01-27T06:20:27;99900.94;;;-6.20;89.02
76590;BME280;65471;55.908;37.880;2024-01-27T06:22:54;99905.63;;;-6.24;89.27
76590;BME280;65471;55.908;37.880;2024-01-27T06:25:21;99882.41;;;-6.30;89.44
76590;BME280;65471;55.908;37.880;2024-01-27T06:27:48;99916.22;;;-6.14;89.35
76590;BME280;65471;55.908;37.880;2024-01-27T06:30:15;99910.03;;;-6.13;89.15
76590;BME280;65471;55.908;37.880;2024-01-27T06:32:43;99914.34;;;-6.12;88.75
76590;BME280;65471;55.908;37.880;2024-01-27T06:35:10;99920.06;;;-6.07;88.81
76590;BME280;65471;55.908;37.880;2024-01-27T06:37:37;99917.91;;;-6.02;89.12
76590;BME280;65471;55.908;37.880;2024-01-27T06:40:06;99922.56;;;-5.94;88.97
76590;BME280;65471;55.908;37.880;2024-01-27T06:42:34;99915.34;;;-5.92;88.90
76590;BME280;65471;55.908;37.880;2024-01-27T06:45:01;99911.16;;;-5.95;88.50
76590;BME280;65471;55.908;37.880;2024-01-27T06:47:30;99920.75;;;-5.94;88.51
76590;BME280;65471;55.908;37.880;2024-01-27T06:49:57;99921.44;;;-5.92;88.96
76590;BME280;65471;55.908;37.880;2024-01-27T06:52:24;99911.91;;;-5.93;88.49
76590;BME280;65471;55.908;37.880;2024-01-27T06:54:51;99929.81;;;-5.86;88.91
76590;BME280;65471;55.908;37.880;2024-01-27T06:57:22;99926.50;;;-5.88;88.18
76590;BME280;65471;55.908;37.880;2024-01-27T06:59:51;99920.38;;;-5.89;88.88
76590;BME280;65471;55.908;37.880;2024-01-27T07:02:28;99929.81;;;-5.86;88.98
76590;BME280;65471;55.908;37.880;2024-01-27T07:04:55;99929.56;;;-5.83;88.55
76590;BME280;65471;55.908;37.880;2024-01-27T07:07:27;99936.97;;;-5.77;88.76
76590;BME280;65471;55.908;37.880;2024-01-27T07:09:55;99942.25;;;-5.77;88.56
76590;BME280;65471;55.908;37.880;2024-01-27T07:12:22;99935.91;;;-5.75;88.29
76590;BME280;65471;55.908;37.880;2024-01-27T07:14:50;99935.19;;;-5.77;87.94
76590;BME280;65471;55.908;37.880;2024-01-27T07:17:22;99936.16;;;-5.78;88.54
76590;BME280;65471;55.908;37.880;2024-01-27T07:19:49;99947.28;;;-5.74;88.03
76590;BME280;65471;55.908;37.880;2024-01-27T07:22:16;99950.88;;;-5.75;88.41
76590;BME280;65471;55.908;37.880;2024-01-27T07:24:42;99961.53;;;-5.77;87.91
76590;BME280;65471;55.908;37.880;2024-01-27T07:27:12;99962.84;;;-5.71;88.13
76590;BME280;65471;55.908;37.880;2024-01-27T07:29:39;99944.97;;;-5.67;88.06
76590;BME280;65471;55.908;37.880;2024-01-27T07:32:06;99954.56;;;-5.66;87.93
76590;BME280;65471;55.908;37.880;2024-01-27T07:34:43;99960.78;;;-5.67;88.14
76590;BME280;65471;55.908;37.880;2024-01-27T07:37:11;99965.47;;;-5.71;87.79
76590;BME280;65471;55.908;37.880;2024-01-27T07:39:38;99968.56;;;-5.66;88.43
76590;BME280;65471;55.908;37.880;2024-01-27T07:42:05;99971.69;;;-5.61;87.95
76590;BME280;65471;55.908;37.880;2024-01-27T07:44:32;99971.81;;;-5.62;88.38
76590;BME280;65471;55.908;37.880;2024-01-27T07:46:59;99971.44;;;-5.58;87.74
76590;BME280;65471;55.908;37.880;2024-01-27T07:49:26;99973.38;;;-5.60;88.15
76590;BME280;65471;55.908;37.880;2024-01-27T07:51:53;99984.16;;;-5.63;87.85
76590;BME280;65471;55.908;37.880;2024-01-27T07:54:21;99975.25;;;-5.62;88.33
76590;BME280;65471;55.908;37.880;2024-01-27T07:56:49;99998.97;;;-5.62;87.52
76590;BME280;65471;55.908;37.880;2024-01-27T07:59:16;99983.44;;;-5.76;88.28
76590;BME280;65471;55.908;37.880;2024-01-27T08:01:44;100005.09;;;-5.61;87.77
76590;BME280;65471;55.908;37.880;2024-01-27T08:04:11;100002.59;;;-5.63;87.94
76590;BME280;65471;55.908;37.880;2024-01-27T08:06:48;100003.41;;;-5.62;88.13
76590;BME280;65471;55.908;37.880;2024-01-27T08:09:17;100001.97;;;-5.55;88.05
76590;BME280;65471;55.908;37.880;2024-01-27T08:11:45;100004.22;;;-5.50;87.32
76590;BME280;65471;55.908;37.880;2024-01-27T08:14:12;99995.94;;;-5.46;87.50
76590;BME280;65471;55.908;37.880;2024-01-27T08:16:39;100002.31;;;-5.48;87.29
76590;BME280;65471;55.908;37.880;2024-01-27T08:19:06;100005.78;;;-5.48;87.15
76590;BME280;65471;55.908;37.880;2024-01-27T08:21:33;100000.38;;;-5.46;87.41
76590;BME280;65471;55.908;37.880;2024-01-27T08:24:00;100003.38;;;-5.40;87.02
76590;BME280;65471;55.908;37.880;2024-01-27T08:26:27;100002.03;;;-5.34;86.98
76590;BME280;65471;55.908;37.880;2024-01-27T08:28:54;100002.63;;;-5.30;87.29
76590;BME280;65471;55.908;37.880;2024-01-27T08:31:23;100004.91;;;-5.26;87.06
76590;BME280;65471;55.908;37.880;2024-01-27T08:33:50;100010.75;;;-5.22;86.60
76590;BME280;65471;55.908;37.880;2024-01-27T08:36:17;100013.63;;;-5.25;86.89
76590;BME280;65471;55.908;37.880;2024-01-27T08:38:44;100015.31;;;-5.24;87.01
76590;BME280;65471;55.908;37.880;2024-01-27T08:41:12;100012.69;;;-5.24;87.05
76590;BME280;65471;55.908;37.880;2024-01-27T08:43:39;100019.38;;;-5.20;86.68
76590;BME280;65471;55.908;37.880;2024-01-27T08:46:06;100023.34;;;-5.14;86.61
76590;BME280;65471;55.908;37.880;2024-01-27T08:48:38;100031.94;;;-5.12;86.86
76590;BME280;65471;55.908;37.880;2024-01-27T08:51:08;100028.09;;;-5.08;86.66
76590;BME280;65471;55.908;37.880;2024-01-27T08:53:35;100026.88;;;-5.04;86.85
76590;BME280;65471;55.908;37.880;2024-01-27T08:56:03;100026.16;;;-5.06;86.62
76590;BME280;65471;55.908;37.880;2024-01-27T08:58:32;100033.81;;;-5.03;86.59
76590;BME280;65471;55.908;37.880;2024-01-27T09:00:59;100024.13;;;-5.03;86.73
76590;BME280;65471;55.908;37.880;2024-01-27T09:03:32;100020.53;;;-5.01;86.54
76590;BME280;65471;55.908;37.880;2024-01-27T09:05:59;100029.28;;;-5.01;86.39
76590;BME280;65471;55.908;37.880;2024-01-27T09:08:26;100029.00;;;-4.98;86.11
76590;BME280;65471;55.908;37.880;2024-01-27T09:10:53;100026.41;;;-5.09;86.18
76590;BME280;65471;55.908;37.880;2024-01-27T09:13:20;100026.41;;;-5.09;86.41
76590;BME280;65471;55.908;37.880;2024-01-27T09:15:47;100034.19;;;-5.08;86.60
76590;BME280;65471;55.908;37.880;2024-01-27T09:18:15;100027.72;;;-5.04;86.09
76590;BME280;65471;55.908;37.880;2024-01-27T09:20:43;100030.84;;;-5.10;86.45
76590;BME280;65471;55.908;37.880;2024-01-27T09:23:10;100034.31;;;-5.09;86.23
76590;BME280;65471;55.908;37.880;2024-01-27T09:25:38;100031.44;;;-5.06;86.48
76590;BME280;65471;55.908;37.880;2024-01-27T09:28:06;100040.66;;;-5.00;86.22
76590;BME280;65471;55.908;37.880;2024-01-27T09:30:32;100033.59;;;-5.00;85.94
76590;BME280;65471;55.908;37.880;2024-01-27T09:33:05;100037.06;;;-4.99;86.03
76590;BME280;65471;55.908;37.880;2024-01-27T09:35:32;100042.72;;;-5.04;86.22
76590;BME280;65471;55.908;37.880;2024-01-27T09:37:59;100029.28;;;-5.01;86.26
76590;BME280;65471;55.908;37.880;2024-01-27T09:40:26;100035.72;;;-4.94;85.92
76590;BME280;65471;55.908;37.880;2024-01-27T09:42:54;100033.56;;;-4.89;86.28
76590;BME280;65471;55.908;37.880;2024-01-27T09:45:25;100034.50;;;-4.90;86.01
76590;BME280;65471;55.908;37.880;2024-01-27T09:47:53;100040.47;;;-4.88;85.98
76590;BME280;65471;55.908;37.880;2024-01-27T09:50:23;100040.88;;;-4.92;85.74
76590;BME280;65471;55.908;37.880;2024-01-27T09:52:50;100041.25;;;-4.97;85.93
76590;BME280;65471;55.908;37.880;2024-01-27T09:55:17;100045.06;;;-4.90;86.14
76590;BME280;65471;55.908;37.880;2024-01-27T09:57:45;100054.41;;;-4.86;86.09
76590;BME280;65471;55.908;37.880;2024-01-27T10:00:13;100044.94;;;-4.88;85.76
76590;BME280;65471;55.908;37.880;2024-01-27T10:02:42;100041.34;;;-4.87;85.88
76590;BME280;65471;55.908;37.880;2024-01-27T10:05:10;100051.00;;;-4.76;85.90
76590;BME280;65471;55.908;37.880;2024-01-27T10:07:38;100052.06;;;-4.79;85.63
76590;BME280;65471;55.908;37.880;2024-01-27T10:10:06;100060.94;;;-4.69;85.96
76590;BME280;65471;55.908;37.880;2024-01-27T10:12:39;100063.06;;;-4.62;85.73
76590;BME280;65471;55.908;37.880;2024-01-27T10:15:21;100070.56;;;-4.58;85.35
76590;BME280;65471;55.908;37.880;2024-01-27T10:17:49;100056.94;;;-4.63;85.17
76590;BME280;65471;55.908;37.880;2024-01-27T10:20:17;100068.53;;;-4.54;85.03
76590;BME280;65471;55.908;37.880;2024-01-27T10:22:46;100079.78;;;-4.52;85.08
76590;BME280;65471;55.908;37.880;2024-01-27T10:25:13;100055.97;;;-4.62;85.03
76590;BME280;65471;55.908;37.880;2024-01-27T10:27:41;100063.38;;;-4.56;85.23
76590;BME280;65471;55.908;37.880;2024-01-27T10:30:17;100069.03;;;-4.60;85.35
76590;BME280;65471;55.908;37.880;2024-01-27T10:32:54;100069.75;;;-4.58;85.16
76590;BME280;65471;55.908;37.880;2024-01-27T10:35:23;100049.38;;;-4.68;85.21
76590;BME280;65471;55.908;37.880;2024-01-27T10:37:54;100074.19;;;-4.59;85.10
76590;BME280;65471;55.908;37.880;2024-01-27T10:40:25;100089.13;;;-4.48;85.02
76590;BME280;65471;55.908;37.880;2024-01-27T10:43:01;100091.50;;;-4.45;84.87
76590;BME280;65471;55.908;37.880;2024-01-27T10:45:34;100092.94;;;-4.41;84.84
76590;BME280;65471;55.908;37.880;2024-01-27T10:48:03;100098.34;;;-4.42;84.70
76590;BME280;65471;55.908;37.880;2024-01-27T10:50:35;100097.38;;;-4.41;85.01
76590;BME280;65471;55.908;37.880;2024-01-27T10:53:22;100100.84;;;-4.41;84.73
76590;BME280;65471;55.908;37.880;2024-01-27T10:55:53;100102.66;;;-4.41;85.14
76590;BME280;65471;55.908;37.880;2024-01-27T10:58:26;100104.66;;;-4.34;84.73
76590;BME280;65471;55.908;37.880;2024-01-27T11:00:53;100108.97;;;-4.32;84.67
76590;BME280;65471;55.908;37.880;2024-01-27T11:03:22;100114.13;;;-4.31;84.75
76590;BME280;65471;55.908;37.880;2024-01-27T11:05:52;100116.56;;;-4.39;84.59
76590;BME280;65471;55.908;37.880;2024-01-27T11:08:20;100115.59;;;-4.38;85.05
76590;BME280;65471;55.908;37.880;2024-01-27T11:10:51;100118.13;;;-4.37;84.91
76590;BME280;65471;55.908;37.880;2024-01-27T11:13:18;100110.19;;;-4.37;85.06
76590;BME280;65471;55.908;37.880;2024-01-27T11:15:52;100123.88;;;-4.31;84.86
76590;BME280;65471;55.908;37.880;2024-01-27T11:18:20;100116.44;;;-4.38;84.90
76590;BME280;65471;55.908;37.880;2024-01-27T11:20:47;100124.13;;;-4.35;84.94
76590;BME280;65471;55.908;37.880;2024-01-27T11:23:14;100135.78;;;-4.37;84.94
76590;BME280;65471;55.908;37.880;2024-01-27T11:25:42;100130.97;;;-4.43;84.74
76590;BME280;65471;55.908;37.880;2024-01-27T11:28:16;100135.16;;;-4.41;85.28
76590;BME280;65471;55.908;37.880;2024-01-27T11:30:47;100134.69;;;-4.35;85.42
76590;BME280;65471;55.908;37.880;2024-01-27T11:33:14;100117.06;;;-4.45;85.49
76590;BME280;65471;55.908;37.880;2024-01-27T11:35:41;100144.00;;;-4.30;85.29
76590;BME280;65471;55.908;37.880;2024-01-27T11:38:08;100131.19;;;-4.35;84.75
76590;BME280;65471;55.908;37.880;2024-01-27T11:40:46;100148.19;;;-4.28;85.11
76590;BME280;65471;55.908;37.880;2024-01-27T11:43:14;100153.94;;;-4.23;84.99
76590;BME280;65471;55.908;37.880;2024-01-27T11:45:41;100155.50;;;-4.20;84.84
76590;BME280;65471;55.908;37.880;2024-01-27T11:48:08;100150.91;;;-4.18;84.62
76590;BME280;65471;55.908;37.880;2024-01-27T11:50:35;100158.97;;;-4.20;84.64
76590;BME280;65471;55.908;37.880;2024-01-27T11:53:04;100157.28;;;-4.21;84.87
76590;BME280;65471;55.908;37.880;2024-01-27T11:55:37;100161.72;;;-4.21;84.81
76590;BME280;65471;55.908;37.880;2024-01-27T11:58:06;100161.88;;;-4.23;84.93
76590;BME280;65471;55.908;37.880;2024-01-27T12:00:33;100161.13;;;-4.25;84.78
76590;BME280;65471;55.908;37.880;2024-01-27T12:03:00;100156.13;;;-4.28;84.91
76590;BME280;65471;55.908;37.880;2024-01-27T12:05:28;100162.47;;;-4.30;84.74
76590;BME280;65471;55.908;37.880;2024-01-27T12:07:55;100159.75;;;-4.29;85.10
76590;BME280;65471;55.908;37.880;2024-01-27T12:10:22;100169.31;;;-4.28;84.89
76590;BME280;65471;55.908;37.880;2024-01-27T12:12:49;100168.47;;;-4.28;84.87
76590;BME280;65471;55.908;37.880;2024-01-27T12:15:16;100174.72;;;-4.29;84.81
76590;BME280;65471;55.908;37.880;2024-01-27T12:17:51;100179.16;;;-4.30;84.67
76590;BME280;65471;55.908;37.880;2024-01-27T12:20:18;100180.38;;;-4.34;84.96
76590;BME280;65471;55.908;37.880;2024-01-27T12:22:45;100188.31;;;-4.34;84.87
76590;BME280;65471;55.908;37.880;2024-01-27T12:25:12;100185.28;;;-4.29;84.70
76590;BME280;65471;55.908;37.880;2024-01-27T12:27:43;100194.06;;;-4.29;84.90
76590;BME280;65471;55.908;37.880;2024-01-27T12:30:11;100201.63;;;-4.36;84.96
76590;BME280;65471;55.908;37.880;2024-01-27T12:32:39;100215.41;;;-4.32;85.02
76590;BME280;65471;55.908;37.880;2024-01-27T12:35:06;100211.81;;;-4.31;85.21
76590;BME280;65471;55.908;37.880;2024-01-27T12:37:34;100216.38;;;-4.33;84.89
76590;BME280;65471;55.908;37.880;2024-01-27T12:40:02;100223.31;;;-4.32;85.00
76590;BME280;65471;55.908;37.880;2024-01-27T12:42:30;100230.28;;;-4.31;84.92
76590;BME280;65471;55.908;37.880;2024-01-27T12:44:57;100228.03;;;-4.36;85.01
76590;BME280;65471;55.908;37.880;2024-01-27T12:47:24;100230.31;;;-4.42;85.00
76590;BME280;65471;55.908;37.880;2024-01-27T12:49:52;100230.19;;;-4.41;85.46